Terminal Aerodrome Forecast
Issued by NWS Green Bay, WI

Home | Current Version | Previous Version | Graphics & Text | Print | Product List | Glossary On
Versions: 1 2 3 4 5 6 7 8 9 10 11 12 13 14 15 16 17 18 19 20 21 22 23 24 25 26 27 28 29 30 31 32 33 34 35 36 37 38 39 40 41 42 43 44 45 46
222
FTUS43 KGRB 241133
TAFGRB
TAF
KGRB 241133Z 2412/2512 VRB03KT 6SM BR OVC035 WS020/27035KT
      TEMPO 2412/2415 4SM -RA BR BKN025
     FM241500 03004KT 4SM -RA OVC013 WS020/26030KT
     FM241700 03005KT 4SM -RA OVC009
     FM242000 04012G22KT 4SM -RA OVC008
     FM250600 04015G23KT 5SM -RA OVC006=

USA.gov is the U.S. government's official web portal to all federal, state and local government web resources and services.